Time;durP1;ratioP1;P1;durP2;ratioP2;P2;SDS_P1;SDS_P2;PMS_P1;PMS_P2;Temp;Humidity;BMP_temperature;BMP_pressure;BME280_temperature;BME280_humidity;BME280_pressure;Samples;Min_cycle;Max_cycle;Signal;HPM_P1;HPM_P2
2022/02/23 00:01:29;;;;;;;26.95;4.68;;;6.10;99.90;;;;;;5057114;28;20078;-71
2022/02/23 00:03:55;;;;;;;16.88;3.55;;;6.10;99.90;;;;;;5073706;28;20047;-72
2022/02/23 00:06:20;;;;;;;20.70;4.18;;;6.00;99.90;;;;;;5090422;28;20021;-71
2022/02/23 00:08:46;;;;;;;24.35;4.10;;;6.00;99.90;;;;;;5074767;28;20437;-71
2022/02/23 00:11:11;;;;;;;29.65;5.28;;;6.10;99.90;;;;;;5074783;28;20028;-72
2022/02/23 00:13:38;;;;;;;21.55;4.32;;;6.10;99.90;;;;;;5090278;28;20039;-71
2022/02/23 00:16:05;;;;;;;26.77;4.57;;;6.00;99.90;;;;;;5073552;28;20445;-72
2022/02/23 00:18:30;;;;;;;24.95;4.15;;;6.00;99.90;;;;;;5074552;28;20093;-73
2022/02/23 00:20:56;;;;;;;22.52;4.93;;;5.90;99.90;;;;;;5073464;28;20108;-71
2022/02/23 00:23:22;;;;;;;25.10;4.82;;;6.00;99.90;;;;;;5074507;28;20020;-72
2022/02/23 00:25:49;;;;;;;23.98;4.25;;;6.00;99.90;;;;;;5073378;28;20017;-72
2022/02/23 00:28:15;;;;;;;32.22;4.75;;;6.00;99.90;;;;;;5074509;28;20466;-72
2022/02/23 00:30:40;;;;;;;19.20;3.90;;;6.00;99.90;;;;;;5073312;28;20025;-72
2022/02/23 00:33:06;;;;;;;15.60;4.65;;;6.00;99.90;;;;;;5073176;28;20394;-71
2022/02/23 00:35:31;;;;;;;24.75;4.15;;;5.90;99.90;;;;;;5089913;28;20371;-72
2022/02/23 00:37:57;;;;;;;30.52;4.78;;;5.90;99.90;;;;;;5074287;28;20066;-72
2022/02/23 00:40:22;;;;;;;36.65;5.38;;;5.90;99.90;;;;;;5072988;28;20032;-73
2022/02/23 00:42:48;;;;;;;20.35;4.43;;;5.90;99.90;;;;;;5089609;28;20076;-71
2022/02/23 00:45:13;;;;;;;29.45;4.75;;;5.80;99.90;;;;;;5089731;28;20115;-72
2022/02/23 00:47:40;;;;;;;20.58;5.22;;;5.70;99.90;;;;;;5074065;28;20017;-72
2022/02/23 00:50:06;;;;;;;18.63;4.53;;;5.70;99.90;;;;;;5074129;28;20389;-71
2022/02/23 00:52:31;;;;;;;24.85;4.35;;;5.70;99.90;;;;;;5073945;28;20073;-72
2022/02/23 00:54:57;;;;;;;26.15;4.97;;;5.70;99.90;;;;;;5072748;28;20029;-72
2022/02/23 00:57:22;;;;;;;28.02;4.57;;;5.70;99.90;;;;;;5072760;28;20028;-72
2022/02/23 00:59:48;;;;;;;26.67;4.63;;;5.70;99.90;;;;;;5073859;28;20395;-72
2022/02/23 01:02:13;;;;;;;23.45;4.30;;;5.60;99.90;;;;;;5072604;28;20024;-71
2022/02/23 01:04:39;;;;;;;29.10;4.82;;;5.60;99.90;;;;;;5072569;28;20064;-71
2022/02/23 01:07:05;;;;;;;29.25;5.90;;;5.60;99.90;;;;;;5073707;28;20525;-71
2022/02/23 01:09:30;;;;;;;23.27;3.85;;;5.60;99.90;;;;;;5073664;28;20470;-71
2022/02/23 01:11:56;;;;;;;23.70;4.40;;;5.60;99.90;;;;;;5073621;28;20478;-72
2022/02/23 01:14:22;;;;;;;20.13;3.97;;;5.60;99.90;;;;;;5072485;28;20031;-71
2022/02/23 01:16:47;;;;;;;24.17;5.28;;;5.60;99.90;;;;;;5055701;28;20495;-72
2022/02/23 01:19:13;;;;;;;27.58;4.75;;;5.60;99.90;;;;;;5073643;28;20158;-72
2022/02/23 01:21:38;;;;;;;28.92;4.45;;;5.60;99.90;;;;;;5072313;28;20119;-72
2022/02/23 01:24:04;;;;;;;25.85;4.05;;;5.60;99.90;;;;;;5072221;28;20390;-71
2022/02/23 01:26:30;;;;;;;22.77;5.35;;;5.60;99.90;;;;;;5072311;28;20538;-72
2022/02/23 01:28:56;;;;;;;23.98;4.85;;;5.50;99.90;;;;;;5054945;28;20035;-72
2022/02/23 01:31:21;;;;;;;24.75;5.25;;;5.50;99.90;;;;;;5072236;28;20052;-72
2022/02/23 01:33:47;;;;;;;30.60;5.13;;;5.50;99.90;;;;;;5073392;28;20371;-71
2022/02/23 01:36:12;;;;;;;29.92;4.75;;;5.40;99.90;;;;;;5072060;28;20393;-73
2022/02/23 01:38:38;;;;;;;22.20;3.75;;;5.40;99.90;;;;;;5088866;28;20024;-73
2022/02/23 01:41:04;;;;;;;19.23;4.63;;;5.30;99.90;;;;;;5073047;28;20036;-72
2022/02/23 01:43:30;;;;;;;22.38;4.05;;;5.30;99.90;;;;;;5071998;28;20035;-71
2022/02/23 01:45:56;;;;;;;24.25;4.93;;;5.40;99.90;;;;;;5073247;28;20077;-72
2022/02/23 01:48:22;;;;;;;34.88;5.00;;;5.30;99.90;;;;;;5072112;28;20032;-72
2022/02/23 01:50:47;;;;;;;26.63;4.35;;;5.40;99.90;;;;;;5072031;28;20048;-71
2022/02/23 01:53:14;;;;;;;28.83;4.68;;;5.40;99.90;;;;;;5071995;28;20036;-72
2022/02/23 01:55:39;;;;;;;30.10;5.28;;;5.30;99.90;;;;;;5071977;28;20025;-72
2022/02/23 01:58:06;;;;;;;18.35;4.00;;;5.30;99.90;;;;;;5073085;28;20522;-71
2022/02/23 02:00:32;;;;;;;22.75;5.30;;;5.30;99.90;;;;;;5071913;28;20035;-72
2022/02/23 02:02:58;;;;;;;24.25;4.65;;;5.30;99.90;;;;;;5073012;28;20025;-71
2022/02/23 02:05:23;;;;;;;25.30;4.47;;;5.20;99.90;;;;;;5071856;28;20394;-71
2022/02/23 02:07:49;;;;;;;27.20;4.65;;;5.20;99.90;;;;;;5055006;28;20017;-72
2022/02/23 02:10:14;;;;;;;31.00;4.65;;;5.20;99.90;;;;;;5073044;28;20029;-72
2022/02/23 02:12:41;;;;;;;28.73;5.45;;;5.20;99.90;;;;;;5071811;28;20024;-71
2022/02/23 02:15:07;;;;;;;16.65;3.70;;;5.20;99.90;;;;;;5072936;28;20051;-72
2022/02/23 02:17:33;;;;;;;19.05;3.72;;;5.20;99.90;;;;;;5088461;28;20035;-71
2022/02/23 02:19:59;;;;;;;20.63;4.22;;;5.30;99.90;;;;;;5072931;28;20032;-71
2022/02/23 02:22:28;;;;;;;26.58;5.10;;;5.20;99.90;;;;;;5071581;28;20024;-71
2022/02/23 02:24:56;;;;;;;34.88;5.13;;;5.10;99.90;;;;;;5071734;28;20028;-71
2022/02/23 02:27:22;;;;;;;29.85;5.43;;;5.10;99.90;;;;;;5072852;28;20092;-71
2022/02/23 02:29:48;;;;;;;20.88;4.20;;;5.00;99.90;;;;;;5071713;28;20032;-73
2022/02/23 02:32:17;;;;;;;20.77;4.00;;;5.00;99.90;;;;;;5054777;28;20029;-72
2022/02/23 02:34:43;;;;;;;29.65;4.63;;;5.00;99.90;;;;;;5071903;28;20028;-72
2022/02/23 02:37:08;;;;;;;22.23;4.55;;;5.00;99.90;;;;;;5071477;28;20028;-72
2022/02/23 02:39:34;;;;;;;31.25;5.00;;;4.90;99.90;;;;;;5071495;28;20035;-72
2022/02/23 02:42:00;;;;;;;27.60;4.28;;;4.90;99.90;;;;;;5075120;28;20166;-71
2022/02/23 02:44:26;;;;;;;20.17;3.63;;;4.90;99.90;;;;;;5075285;28;20078;-71
2022/02/23 02:46:52;;;;;;;20.38;4.45;;;4.80;99.90;;;;;;5075307;28;20444;-71
2022/02/23 02:49:18;;;;;;;28.42;4.53;;;4.80;99.90;;;;;;5076401;28;20413;-72
2022/02/23 02:51:43;;;;;;;22.95;4.00;;;4.80;99.90;;;;;;5075112;28;20039;-71
2022/02/23 02:54:09;;;;;;;23.35;4.57;;;4.70;99.90;;;;;;5058375;28;20021;-72
2022/02/23 02:56:37;;;;;;;21.23;4.90;;;4.70;99.90;;;;;;5075023;28;20028;-71
2022/02/23 02:59:03;;;;;;;26.58;4.15;;;4.70;99.90;;;;;;5076175;28;20488;-71
2022/02/23 03:01:29;;;;;;;19.58;4.18;;;4.60;99.90;;;;;;5074965;28;20026;-72
2022/02/23 03:03:56;;;;;;;26.48;4.97;;;4.60;99.90;;;;;;5091737;28;20371;-72
2022/02/23 03:06:22;;;;;;;24.40;4.13;;;4.50;99.90;;;;;;5076044;28;20074;-71
2022/02/23 03:08:50;;;;;;;28.65;4.95;;;4.50;99.90;;;;;;5075955;28;20027;-71
2022/02/23 03:11:16;;;;;;;28.08;4.47;;;4.50;99.90;;;;;;5075968;28;20390;-71
2022/02/23 03:13:42;;;;;;;18.55;4.43;;;4.60;99.90;;;;;;5075024;28;20024;-71
2022/02/23 03:16:10;;;;;;;29.42;4.97;;;4.50;99.90;;;;;;5058016;28;20024;-73
2022/02/23 03:18:36;;;;;;;23.27;4.75;;;4.40;99.90;;;;;;5075799;28;20046;-72
2022/02/23 03:21:02;;;;;;;27.75;4.97;;;4.30;99.90;;;;;;5074578;28;20115;-72
2022/02/23 03:23:28;;;;;;;21.88;5.13;;;4.30;99.90;;;;;;5075637;28;20371;-72
2022/02/23 03:25:53;;;;;;;24.35;4.97;;;4.30;99.90;;;;;;5074525;28;20031;-72
2022/02/23 03:28:19;;;;;;;29.55;5.07;;;4.20;99.90;;;;;;5074483;28;20025;-72
2022/02/23 03:30:45;;;;;;;34.55;6.40;;;4.20;99.90;;;;;;5075601;28;20020;-71
2022/02/23 03:33:11;;;;;;;21.85;4.20;;;4.10;99.90;;;;;;5074405;28;20034;-72
2022/02/23 03:35:37;;;;;;;30.70;5.25;;;4.10;99.90;;;;;;5074291;28;20020;-71
2022/02/23 03:38:04;;;;;;;31.52;4.72;;;4.20;99.90;;;;;;5074277;28;20097;-71
2022/02/23 03:40:30;;;;;;;43.20;5.40;;;4.10;99.90;;;;;;5074182;28;20475;-71
2022/02/23 03:42:55;;;;;;;32.92;5.53;;;4.00;99.90;;;;;;5073947;28;20101;-72
2022/02/23 03:45:21;;;;;;;32.25;5.03;;;4.20;99.90;;;;;;5075302;28;20107;-72
2022/02/23 03:47:47;;;;;;;26.65;4.85;;;4.20;99.90;;;;;;5074145;28;20454;-72
2022/02/23 03:50:13;;;;;;;21.45;4.43;;;4.20;99.90;;;;;;5090824;28;20111;-72
2022/02/23 03:52:39;;;;;;;32.40;5.10;;;4.10;99.90;;;;;;5073573;28;20399;-72
2022/02/23 03:55:07;;;;;;;27.13;5.30;;;4.00;99.90;;;;;;5090784;28;20025;-71
2022/02/23 03:57:32;;;;;;;26.92;4.95;;;4.00;99.90;;;;;;5073964;28;20390;-71
2022/02/23 03:59:58;;;;;;;21.05;4.72;;;4.10;99.90;;;;;;5073951;28;20027;-72
2022/02/23 04:02:23;;;;;;;31.58;5.43;;;4.00;99.90;;;;;;5074974;28;20048;-71
2022/02/23 04:04:49;;;;;;;26.75;4.80;;;4.10;99.90;;;;;;5057020;28;20017;-71
2022/02/23 04:07:15;;;;;;;29.90;5.68;;;4.10;99.90;;;;;;5074890;28;20048;-73
2022/02/23 04:09:40;;;;;;;24.05;5.18;;;4.00;99.90;;;;;;5073707;28;20024;-71
2022/02/23 04:12:06;;;;;;;28.40;4.78;;;4.00;99.90;;;;;;5073622;28;20031;-71
2022/02/23 04:14:32;;;;;;;22.92;4.97;;;3.90;99.90;;;;;;5073919;28;20024;-71
2022/02/23 04:16:57;;;;;;;33.40;5.32;;;4.00;99.90;;;;;;5073569;28;20020;-71
2022/02/23 04:19:23;;;;;;;20.33;4.20;;;4.00;99.90;;;;;;5074619;28;20039;-71
2022/02/23 04:21:48;;;;;;;25.42;4.88;;;3.80;99.90;;;;;;5073467;28;20051;-72
2022/02/23 04:24:14;;;;;;;27.80;4.70;;;3.80;99.90;;;;;;5074517;28;20059;-71
2022/02/23 04:26:40;;;;;;;31.80;5.03;;;3.70;99.90;;;;;;5073312;28;20496;-72
2022/02/23 04:29:06;;;;;;;22.23;4.70;;;3.70;99.90;;;;;;5073249;28;20094;-72
2022/02/23 04:31:32;;;;;;;21.95;4.47;;;3.70;99.90;;;;;;5074407;28;20103;-71
2022/02/23 04:33:59;;;;;;;23.90;4.47;;;3.80;99.90;;;;;;5074320;28;20027;-72
2022/02/23 04:36:25;;;;;;;27.60;4.88;;;3.70;99.90;;;;;;5073179;28;20028;-72
2022/02/23 04:38:51;;;;;;;29.50;4.78;;;3.80;99.90;;;;;;5056298;28;20020;-72
2022/02/23 04:41:16;;;;;;;32.58;5.35;;;3.80;99.90;;;;;;5073834;28;20044;-72
2022/02/23 04:43:42;;;;;;;25.63;5.10;;;3.90;99.90;;;;;;5074076;28;20123;-72
2022/02/23 04:46:11;;;;;;;30.65;6.45;;;3.80;99.90;;;;;;5074034;28;20031;-72
2022/02/23 04:48:41;;;;;;;25.80;4.68;;;3.70;99.90;;;;;;5089672;28;20020;-71
2022/02/23 04:51:06;;;;;;;28.95;5.85;;;3.70;99.90;;;;;;5074001;28;20017;-72
2022/02/23 04:53:32;;;;;;;27.05;5.45;;;3.80;99.90;;;;;;5073970;28;20035;-71
2022/02/23 04:55:58;;;;;;;22.40;4.82;;;3.70;99.90;;;;;;5072794;28;20106;-71
2022/02/23 04:58:23;;;;;;;28.35;5.43;;;3.70;99.90;;;;;;5072725;28;20033;-72
2022/02/23 05:00:49;;;;;;;25.33;4.82;;;3.80;99.90;;;;;;5072761;28;20032;-72
2022/02/23 05:03:15;;;;;;;26.05;4.57;;;3.80;99.90;;;;;;5071864;28;20437;-71
2022/02/23 05:05:42;;;;;;;26.25;5.03;;;3.80;99.90;;;;;;5072548;28;20074;-71
2022/02/23 05:08:08;;;;;;;25.85;4.78;;;3.70;99.90;;;;;;5072542;28;20067;-71
2022/02/23 05:10:33;;;;;;;27.98;4.60;;;3.60;99.90;;;;;;5073670;28;20020;-72
2022/02/23 05:12:59;;;;;;;38.60;6.80;;;3.50;99.90;;;;;;5089253;28;20036;-71
2022/02/23 05:15:25;;;;;;;27.30;5.07;;;3.50;99.90;;;;;;5073637;28;20029;-72
2022/02/23 05:17:51;;;;;;;26.30;5.22;;;3.50;99.90;;;;;;5072413;28;20029;-72
2022/02/23 05:20:16;;;;;;;26.48;5.47;;;3.50;99.90;;;;;;5089120;28;20112;-72
2022/02/23 05:22:45;;;;;;;34.20;5.20;;;3.50;99.90;;;;;;5073407;28;20017;-71
2022/02/23 05:25:11;;;;;;;32.40;5.32;;;3.40;99.90;;;;;;5072314;28;20126;-71
2022/02/23 05:27:36;;;;;;;34.47;5.65;;;3.40;99.90;;;;;;5073448;28;20533;-71
2022/02/23 05:30:02;;;;;;;30.52;6.05;;;3.40;99.90;;;;;;5073393;28;20031;-71
2022/02/23 05:32:28;;;;;;;40.10;6.03;;;3.50;99.90;;;;;;5088992;28;20116;-72
2022/02/23 05:34:53;;;;;;;41.42;5.57;;;3.40;99.90;;;;;;5073332;28;20178;-71
2022/02/23 05:37:19;;;;;;;26.95;4.55;;;3.40;99.90;;;;;;5088765;28;20039;-71
2022/02/23 05:39:44;;;;;;;31.67;6.55;;;3.40;99.90;;;;;;5055299;28;20029;-71
2022/02/23 05:42:10;;;;;;;26.83;5.68;;;3.50;99.90;;;;;;5071699;28;20434;-72
2022/02/23 05:44:35;;;;;;;34.92;5.90;;;3.40;99.90;;;;;;5073216;28;20029;-71
2022/02/23 05:47:01;;;;;;;27.42;5.15;;;3.40;99.90;;;;;;5073238;28;20024;-72
2022/02/23 05:49:26;;;;;;;23.30;4.70;;;3.40;99.90;;;;;;5071935;28;20059;-71
2022/02/23 05:51:52;;;;;;;32.65;5.00;;;3.20;99.90;;;;;;5071984;28;20111;-72
2022/02/23 05:54:18;;;;;;;32.75;5.35;;;3.20;99.90;;;;;;5071951;28;20050;-71
2022/02/23 05:56:43;;;;;;;38.10;6.22;;;3.20;99.90;;;;;;5073098;28;20046;-72
2022/02/23 05:59:09;;;;;;;22.30;5.45;;;3.20;99.90;;;;;;5072020;28;20115;-71
2022/02/23 06:01:36;;;;;;;25.80;5.10;;;3.20;99.90;;;;;;5073093;28;20028;-71
2022/02/23 06:04:03;;;;;;;27.33;4.65;;;3.30;99.90;;;;;;5072982;28;20024;-71
2022/02/23 06:06:29;;;;;;;20.02;5.18;;;3.40;99.90;;;;;;5073078;28;20017;-71
2022/02/23 06:08:54;;;;;;;28.88;5.40;;;3.40;99.90;;;;;;5071754;28;20024;-71
2022/02/23 06:11:20;;;;;;;22.20;5.57;;;3.40;99.90;;;;;;5055158;28;20048;-71
2022/02/23 06:13:53;;;;;;;26.65;5.35;;;3.30;99.90;;;;;;5055046;28;20039;-71
2022/02/23 06:16:22;;;;;;;19.35;5.07;;;3.20;99.90;;;;;;5059472;28;20025;-71
2022/02/23 06:18:47;;;;;;;22.95;5.00;;;3.10;99.90;;;;;;5075725;28;20029;-71
2022/02/23 06:21:13;;;;;;;24.20;5.07;;;3.00;99.90;;;;;;5092495;28;20127;-71
2022/02/23 06:23:39;;;;;;;22.33;4.97;;;2.90;99.90;;;;;;5076772;28;20385;-71
2022/02/23 06:26:05;;;;;;;27.75;6.93;;;2.80;99.90;;;;;;5075661;28;20436;-71
2022/02/23 06:28:31;;;;;;;31.67;6.53;;;2.80;99.90;;;;;;5076656;28;20021;-71
2022/02/23 06:30:57;;;;;;;22.92;5.63;;;2.90;99.90;;;;;;5076805;28;20101;-71
2022/02/23 06:33:25;;;;;;;33.38;9.68;;;2.90;99.90;;;;;;5058746;28;20021;-71
2022/02/23 06:35:51;;;;;;;33.92;9.60;;;2.80;99.90;;;;;;5076713;28;20383;-71
2022/02/23 06:38:17;;;;;;;37.70;11.65;;;2.80;99.90;;;;;;5076667;28;20385;-71
2022/02/23 06:40:43;;;;;;;31.15;10.50;;;2.90;99.90;;;;;;5076533;28;20032;-71
2022/02/23 06:43:08;;;;;;;32.97;10.05;;;2.90;99.90;;;;;;5075004;28;20036;-71
2022/02/23 06:45:35;;;;;;;34.20;14.55;;;2.80;99.90;;;;;;5092048;28;20021;-71
2022/02/23 06:48:00;;;;;;;125.82;48.60;;;2.90;99.90;;;;;;5076383;28;20501;-71
2022/02/23 06:50:26;;;;;;;265.65;113.65;;;3.00;99.90;;;;;;5058383;28;20023;-71
2022/02/23 06:52:53;;;;;;;262.98;105.65;;;3.20;99.90;;;;;;5075019;28;20025;-71
2022/02/23 06:55:19;;;;;;;256.17;107.10;;;3.40;99.90;;;;;;5074887;28;20158;-71
2022/02/23 06:57:45;;;;;;;97.93;36.58;;;3.70;99.90;;;;;;5091702;28;20473;-72
2022/02/23 07:00:12;;;;;;;84.68;35.70;;;3.80;99.90;;;;;;5074984;28;20016;-72
2022/02/23 07:02:38;;;;;;;60.83;22.95;;;4.10;99.90;;;;;;5075935;28;20074;-71
2022/02/23 07:05:04;;;;;;;44.03;16.65;;;4.50;99.90;;;;;;5075920;28;20028;-71
2022/02/23 07:07:29;;;;;;;55.72;22.58;;;4.80;99.90;;;;;;5075478;28;20386;-72
2022/02/23 07:09:55;;;;;;;42.70;14.35;;;5.10;99.90;;;;;;5057462;28;20025;-72
2022/02/23 07:12:21;;;;;;;26.73;9.90;;;5.90;99.90;;;;;;5075926;28;20028;-72
2022/02/23 07:14:47;;;;;;;23.33;7.50;;;6.80;99.90;;;;;;5074369;28;20032;-71
2022/02/23 07:17:12;;;;;;;21.65;7.03;;;6.90;99.90;;;;;;5074233;28;20111;-72
2022/02/23 07:19:38;;;;;;;29.02;8.50;;;7.40;99.90;;;;;;5074564;28;20557;-71
2022/02/23 07:22:04;;;;;;;35.45;9.00;;;7.70;99.90;;;;;;5073749;28;20028;-72
2022/02/23 07:24:32;;;;;;;26.33;7.88;;;8.00;99.90;;;;;;5075278;28;20398;-72
2022/02/23 07:26:58;;;;;;;32.22;7.10;;;8.40;99.90;;;;;;5072149;28;20016;-72
2022/02/23 07:29:24;;;;;;;24.05;6.82;;;8.50;99.90;;;;;;5074124;28;20386;-72
2022/02/23 07:31:50;;;;;;;27.48;7.32;;;8.80;99.90;;;;;;5071180;28;20039;-72
2022/02/23 07:34:16;;;;;;;23.27;6.40;;;8.90;99.90;;;;;;5072895;28;20556;-72
2022/02/23 07:36:42;;;;;;;29.35;7.38;;;9.00;99.90;;;;;;5072908;28;20036;-72
2022/02/23 07:39:08;;;;;;;22.63;6.97;;;9.10;99.90;;;;;;5073347;28;20128;-72
2022/02/23 07:41:34;;;;;;;23.38;7.38;;;9.50;99.90;;;;;;5072906;28;20491;-72
2022/02/23 07:44:00;;;;;;;23.80;7.40;;;9.50;99.90;;;;;;5073661;28;20078;-73
2022/02/23 07:46:26;;;;;;;23.40;7.25;;;9.70;99.90;;;;;;5073309;28;20031;-73
2022/02/23 07:48:58;;;;;;;29.92;9.50;;;9.50;99.90;;;;;;5074300;28;20035;-73
2022/02/23 07:51:24;;;;;;;31.15;8.20;;;9.80;99.90;;;;;;5074338;28;20593;-72
2022/02/23 07:53:52;;;;;;;25.70;6.90;;;9.60;99.90;;;;;;5074195;28;20116;-73
2022/02/23 07:56:18;;;;;;;20.42;6.60;;;9.90;99.90;;;;;;5087943;28;20031;-73
2022/02/23 07:58:44;;;;;;;21.85;6.70;;;9.50;99.90;;;;;;5072309;28;20451;-73
2022/02/23 08:01:31;;;;;;;25.73;8.25;;;9.80;99.90;;;;;;5072710;28;20037;-73
2022/02/23 08:03:57;;;;;;;25.25;8.80;;;10.10;99.90;;;;;;5073801;28;20531;-73
2022/02/23 08:06:23;;;;;;;20.38;7.53;;;10.60;99.90;;;;;;5055159;28;20024;-72
2022/02/23 08:08:49;;;;;;;26.63;7.47;;;10.40;99.90;;;;;;5075568;28;20160;-73
2022/02/23 08:11:18;;;;;;;28.50;6.75;;;10.70;99.90;;;;;;5076597;28;20016;-72
2022/02/23 08:13:45;;;;;;;19.70;5.72;;;10.60;99.90;;;;;;5074511;28;20077;-73
2022/02/23 08:21:42;;;;;;;17.45;6.80;;;10.50;99.90;;;;;;5074051;28;20036;-73
2022/02/23 08:24:07;;;;;;;22.88;7.20;;;10.80;99.90;;;;;;5075948;28;20032;-72
2022/02/23 08:26:33;;;;;;;25.60;7.18;;;11.10;99.90;;;;;;5082484;28;20035;-73
2022/02/23 08:28:59;;;;;;;26.75;7.18;;;11.30;99.90;;;;;;5074608;28;20496;-72
2022/02/23 08:31:25;;;;;;;27.35;7.18;;;11.30;99.90;;;;;;5074276;28;20085;-72
2022/02/23 08:33:50;;;;;;;26.70;7.43;;;11.70;99.90;;;;;;5077483;28;20020;-72
2022/02/23 08:36:16;;;;;;;22.63;6.43;;;12.00;99.90;;;;;;5078977;28;20107;-72
2022/02/23 08:38:42;;;;;;;21.58;6.65;;;11.60;99.90;;;;;;5079709;28;20024;-72
2022/02/23 08:41:08;;;;;;;22.30;6.60;;;11.50;99.90;;;;;;5075637;28;20024;-72
2022/02/23 08:43:34;;;;;;;22.10;6.38;;;11.10;99.90;;;;;;5065673;28;20021;-73
2022/02/23 08:46:00;;;;;;;25.25;6.50;;;11.40;99.90;;;;;;5077628;28;20021;-72
2022/02/23 08:48:27;;;;;;;27.20;6.93;;;11.30;99.90;;;;;;5073435;28;20044;-72
2022/02/23 08:50:53;;;;;;;23.02;7.03;;;11.40;99.90;;;;;;5071757;28;20444;-73
2022/02/23 08:53:18;;;;;;;29.92;7.00;;;11.20;99.90;;;;;;5072015;28;20111;-73
2022/02/23 08:55:44;;;;;;;30.38;6.85;;;11.50;99.90;;;;;;5066729;28;20482;-74
2022/02/23 08:58:13;;;;;;;26.35;7.35;;;11.60;99.90;;;;;;5072203;28;20039;-73
2022/02/23 09:00:40;;;;;;;22.38;7.65;;;11.90;99.90;;;;;;5070963;28;20398;-78
2022/02/23 09:03:05;;;;;;;20.70;7.30;;;11.50;99.90;;;;;;5073876;28;20035;-77
2022/02/23 09:05:31;;;;;;;22.77;7.10;;;11.20;99.90;;;;;;5054384;28;20038;-77
2022/02/23 09:07:56;;;;;;;26.30;6.65;;;11.30;99.90;;;;;;5073141;28;20074;-76
2022/02/23 09:10:22;;;;;;;20.27;6.63;;;11.70;99.90;;;;;;5072466;28;20075;-77
2022/02/23 09:12:47;;;;;;;28.48;7.38;;;11.40;99.90;;;;;;5073560;28;20033;-76
2022/02/23 09:15:13;;;;;;;24.35;6.10;;;10.90;99.90;;;;;;5054655;28;20040;-77
2022/02/23 09:17:39;;;;;;;19.45;6.32;;;11.20;99.90;;;;;;5059227;28;20757;-78
2022/02/23 09:20:06;;;;;;;25.60;6.63;;;11.30;99.90;;;;;;5073592;28;20059;-77
2022/02/23 09:22:31;;;;;;;27.48;5.75;;;11.70;99.90;;;;;;5055438;28;20094;-77
2022/02/23 09:24:57;;;;;;;21.88;5.95;;;12.30;99.90;;;;;;5074351;28;20474;-77
2022/02/23 09:27:22;;;;;;;26.02;6.65;;;12.20;99.90;;;;;;5080975;28;20481;-77
2022/02/23 09:29:48;;;;;;;24.92;6.32;;;12.20;99.90;;;;;;5084862;28;20107;-77
2022/02/23 09:32:15;;;;;;;18.88;6.13;;;12.50;99.90;;;;;;5085507;28;20084;-77
2022/02/23 09:34:41;;;;;;;23.50;6.32;;;12.70;99.90;;;;;;5058886;28;20016;-76
2022/02/23 09:37:07;;;;;;;27.02;6.80;;;12.20;99.90;;;;;;5078432;28;20371;-78
2022/02/23 09:39:32;;;;;;;18.80;5.53;;;12.10;99.90;;;;;;5056637;28;20024;-76
2022/02/23 09:41:59;;;;;;;17.98;5.60;;;12.20;99.90;;;;;;5076312;28;20537;-75
2022/02/23 09:44:27;;;;;;;20.60;5.43;;;12.40;99.90;;;;;;5075151;28;20028;-74
2022/02/23 09:46:53;;;;;;;18.27;5.35;;;12.80;99.90;;;;;;5058587;28;20506;-76
2022/02/23 09:49:19;;;;;;;20.45;6.03;;;13.20;99.90;;;;;;5075252;28;20017;-75
2022/02/23 09:51:46;;;;;;;16.85;5.40;;;13.40;99.90;;;;;;5080291;28;20028;-76
2022/02/23 09:54:12;;;;;;;18.15;5.10;;;13.10;99.90;;;;;;5059366;28;20025;-77
2022/02/23 09:56:39;;;;;;;18.88;6.13;;;13.20;99.90;;;;;;5075146;28;20029;-76
2022/02/23 09:59:06;;;;;;;30.75;6.57;;;12.60;99.90;;;;;;5076830;28;20478;-76
2022/02/23 10:01:33;;;;;;;20.92;5.80;;;12.20;99.90;;;;;;5062500;28;20025;-75
2022/02/23 10:04:01;;;;;;;24.77;5.28;;;12.40;99.90;;;;;;5081334;28;20104;-75
2022/02/23 10:06:32;;;;;;;19.52;5.20;;;12.50;99.90;;;;;;5071990;28;20025;-80
2022/02/23 10:09:05;;;;;;;18.27;4.97;;;12.80;99.90;;;;;;5076888;28;20493;-80
2022/02/23 10:11:31;;;;;;;21.80;5.43;;;13.00;99.90;;;;;;5071246;28;20489;-80
2022/02/23 10:13:58;;;;;;;23.65;5.45;;;13.40;99.90;;;;;;5078160;28;20028;-80
2022/02/23 10:16:27;;;;;;;19.90;5.35;;;12.90;99.90;;;;;;5054706;28;20037;-81
2022/02/23 10:19:22;;;;;;;21.00;5.20;;;13.00;99.90;;;;;;5088282;28;20047;-80
2022/02/23 10:21:59;;;;;;;16.27;5.18;;;12.60;99.90;;;;;;5064357;28;20033;-79
2022/02/23 10:24:28;;;;;;;19.63;5.50;;;12.50;99.90;;;;;;5084690;28;20028;-77
2022/02/23 10:26:56;;;;;;;15.13;4.25;;;12.70;99.90;;;;;;5079622;28;20120;-74
2022/02/23 10:29:31;;;;;;;18.48;5.22;;;13.10;99.90;;;;;;5079653;28;20013;-75
2022/02/23 10:31:57;;;;;;;24.15;5.03;;;13.10;99.90;;;;;;5079178;28;20016;-74
2022/02/23 10:34:25;;;;;;;15.63;5.03;;;13.10;99.90;;;;;;5065726;28;20394;-76
2022/02/23 10:37:07;;;;;;;24.50;5.57;;;13.30;99.90;;;;;;5071399;28;20482;-76
2022/02/23 10:39:46;;;;;;;20.55;6.10;;;13.30;99.90;;;;;;5077496;28;20020;-76
2022/02/23 10:42:15;;;;;;;23.00;5.30;;;13.40;99.90;;;;;;5082035;28;20048;-74
2022/02/23 10:44:44;;;;;;;15.25;4.47;;;13.10;99.90;;;;;;5080754;28;20056;-76
2022/02/23 10:47:33;;;;;;;18.25;5.63;;;13.50;99.90;;;;;;5077065;28;20051;-75
2022/02/23 10:50:02;;;;;;;22.80;5.32;;;13.50;99.90;;;;;;5069897;28;20025;-76
2022/02/23 10:52:29;;;;;;;15.82;4.95;;;13.60;99.90;;;;;;5071243;28;20074;-75
2022/02/23 10:55:19;;;;;;;18.02;4.68;;;12.90;99.90;;;;;;5070942;28;20025;-78
2022/02/23 10:57:48;;;;;;;19.92;5.07;;;13.30;99.90;;;;;;5085925;28;20055;-75
2022/02/23 11:00:17;;;;;;;16.30;4.97;;;13.40;99.90;;;;;;5081581;28;20032;-75
2022/02/23 11:02:42;;;;;;;17.50;4.93;;;13.40;99.90;;;;;;5056842;28;20028;-75
2022/02/23 11:05:08;;;;;;;18.50;5.50;;;13.30;99.90;;;;;;5058433;28;20024;-75
2022/02/23 11:07:34;;;;;;;16.40;4.80;;;13.50;99.90;;;;;;5078708;28;20478;-75
2022/02/23 11:10:00;;;;;;;19.65;4.72;;;13.50;99.90;;;;;;5066986;28;20024;-75
2022/02/23 11:12:27;;;;;;;19.30;5.28;;;13.60;99.90;;;;;;5085249;28;20025;-77
2022/02/23 11:14:53;;;;;;;16.25;4.53;;;13.60;99.90;;;;;;5059036;28;20031;-77
2022/02/23 11:17:20;;;;;;;21.08;5.50;;;13.10;99.90;;;;;;5057704;28;20338;-77
2022/02/23 11:19:47;;;;;;;19.17;4.40;;;12.90;99.90;;;;;;5077011;28;20479;-76
2022/02/23 11:22:12;;;;;;;14.43;4.33;;;13.10;99.90;;;;;;5077443;28;20025;-77
2022/02/23 11:24:39;;;;;;;22.33;4.30;;;13.30;99.90;;;;;;5087841;28;20025;-76
2022/02/23 11:27:11;;;;;;;21.27;5.72;;;13.30;99.90;;;;;;5074476;28;21413;-76
2022/02/23 11:29:48;;;;;;;22.02;5.47;;;12.80;99.90;;;;;;5072427;28;20099;-76
2022/02/23 11:32:14;;;;;;;16.27;4.60;;;12.70;99.90;;;;;;5070791;28;20094;-76
2022/02/23 11:34:40;;;;;;;16.15;4.32;;;12.80;99.90;;;;;;5057051;28;20449;-76
2022/02/23 11:37:11;;;;;;;14.85;4.25;;;12.60;99.90;;;;;;5078776;28;20029;-76
2022/02/23 11:39:38;;;;;;;18.30;4.53;;;12.10;99.90;;;;;;5078470;28;20013;-76
2022/02/23 11:42:10;;;;;;;15.50;4.28;;;12.00;99.90;;;;;;5073539;28;20613;-76
2022/02/23 11:44:39;;;;;;;22.13;4.40;;;12.40;99.90;;;;;;5077407;28;20021;-76
2022/02/23 11:50:30;;;;;;;14.68;4.20;;;12.20;99.90;;;;;;5088146;28;20431;-76
2022/02/23 11:53:17;;;;;;;16.00;4.43;;;12.30;99.90;;;;;;5090821;28;20370;-76
2022/02/23 11:56:08;;;;;;;16.55;4.18;;;12.00;99.90;;;;;;5064175;28;20044;-76
2022/02/23 12:01:59;;;;;;;13.38;3.47;;;12.30;99.90;;;;;;5078737;28;20063;-76
2022/02/23 12:04:47;;;;;;;13.63;3.90;;;12.40;99.90;;;;;;5085219;28;20028;-76
2022/02/23 12:07:13;;;;;;;15.20;3.55;;;12.20;99.90;;;;;;5079911;28;20016;-76
2022/02/23 12:12:52;;;;;;;17.25;3.30;;;11.80;99.90;;;;;;5109104;27;20885;-74
2022/02/23 12:18:00;;;;;;;16.27;3.55;;;12.00;99.90;;;;;;5094752;27;20372;-73
2022/02/23 12:20:48;;;;;;;15.25;3.55;;;12.20;99.90;;;;;;5054280;28;20078;-74
2022/02/23 12:26:16;;;;;;;11.43;3.53;;;12.50;99.90;;;;;;5090421;28;20414;-74
2022/02/23 12:28:47;;;;;;;10.55;2.95;;;12.20;99.90;;;;;;5089355;28;20482;-73
2022/02/23 12:31:17;;;;;;;16.27;3.75;;;12.20;99.90;;;;;;5073128;28;20023;-74
2022/02/23 12:33:44;;;;;;;14.93;3.00;;;12.50;99.90;;;;;;5088896;28;20032;-73
2022/02/23 12:36:13;;;;;;;16.25;3.30;;;12.30;99.90;;;;;;5092667;28;20024;-73
2022/02/23 12:38:47;;;;;;;13.48;3.20;;;11.80;99.90;;;;;;5095990;28;20023;-74
2022/02/23 12:41:21;;;;;;;9.90;2.70;;;11.70;99.90;;;;;;5091423;28;20024;-74
2022/02/23 12:44:00;;;;;;;11.93;3.03;;;11.80;99.90;;;;;;5097928;28;20028;-74
2022/02/23 12:46:29;;;;;;;7.63;2.45;;;11.90;99.90;;;;;;5091480;28;20024;-74
2022/02/23 12:48:56;;;;;;;9.75;2.28;;;12.10;99.90;;;;;;5087190;28;20027;-75
2022/02/23 12:51:23;;;;;;;12.23;3.47;;;12.00;99.90;;;;;;5090509;28;20157;-76
2022/02/23 12:53:52;;;;;;;10.18;2.88;;;12.20;99.90;;;;;;5090285;28;20024;-75
2022/02/23 12:56:22;;;;;;;18.85;6.88;;;12.10;99.90;;;;;;5076054;28;20024;-76
2022/02/23 12:58:51;;;;;;;9.95;2.80;;;12.30;99.90;;;;;;5080872;28;20066;-76
2022/02/23 13:01:19;;;;;;;13.60;3.17;;;12.20;99.90;;;;;;5099350;28;20028;-76
2022/02/23 13:03:45;;;;;;;10.20;2.65;;;12.30;99.90;;;;;;5102262;28;20028;-76